sensor_id;sensor_type;location;lat;lon;timestamp;P1;durP1;ratioP1;P2;durP2;ratioP2
63346;SDS011;49472;49.880;8.650;2022-12-10T00:01:05;41.40;;;28.30;;
63346;SDS011;49472;49.880;8.650;2022-12-10T00:03:44;35.77;;;26.90;;
63346;SDS011;49472;49.880;8.650;2022-12-10T00:06:11;38.40;;;28.03;;
63346;SDS011;49472;49.880;8.650;2022-12-10T00:08:38;38.03;;;26.33;;
63346;SDS011;49472;49.880;8.650;2022-12-10T00:11:04;39.90;;;27.90;;
63346;SDS011;49472;49.880;8.650;2022-12-10T00:13:32;35.77;;;26.97;;
63346;SDS011;49472;49.880;8.650;2022-12-10T00:16:01;43.70;;;30.40;;
63346;SDS011;49472;49.880;8.650;2022-12-10T00:18:28;40.83;;;26.90;;
63346;SDS011;49472;49.880;8.650;2022-12-10T00:20:54;38.83;;;27.60;;
63346;SDS011;49472;49.880;8.650;2022-12-10T00:23:20;45.13;;;28.77;;
63346;SDS011;49472;49.880;8.650;2022-12-10T00:25:45;37.00;;;26.60;;
63346;SDS011;49472;49.880;8.650;2022-12-10T00:28:10;35.00;;;26.20;;
63346;SDS011;49472;49.880;8.650;2022-12-10T00:30:37;40.13;;;28.53;;
63346;SDS011;49472;49.880;8.650;2022-12-10T00:33:02;35.87;;;27.13;;
63346;SDS011;49472;49.880;8.650;2022-12-10T00:35:28;36.17;;;27.23;;
63346;SDS011;49472;49.880;8.650;2022-12-10T00:37:53;39.27;;;27.97;;
63346;SDS011;49472;49.880;8.650;2022-12-10T00:40:18;40.10;;;28.13;;
63346;SDS011;49472;49.880;8.650;2022-12-10T00:42:44;45.03;;;28.27;;
63346;SDS011;49472;49.880;8.650;2022-12-10T00:45:09;42.33;;;28.90;;
63346;SDS011;49472;49.880;8.650;2022-12-10T00:47:35;36.83;;;27.07;;
63346;SDS011;49472;49.880;8.650;2022-12-10T00:50:00;38.30;;;28.07;;
63346;SDS011;49472;49.880;8.650;2022-12-10T00:52:25;39.20;;;28.50;;
63346;SDS011;49472;49.880;8.650;2022-12-10T00:54:50;36.63;;;27.67;;
63346;SDS011;49472;49.880;8.650;2022-12-10T00:57:16;41.70;;;29.83;;
63346;SDS011;49472;49.880;8.650;2022-12-10T00:59:41;41.87;;;27.60;;
63346;SDS011;49472;49.880;8.650;2022-12-10T01:02:06;43.50;;;29.40;;
63346;SDS011;49472;49.880;8.650;2022-12-10T01:04:32;38.47;;;28.97;;
63346;SDS011;49472;49.880;8.650;2022-12-10T01:06:57;41.73;;;29.57;;
63346;SDS011;49472;49.880;8.650;2022-12-10T01:09:25;36.60;;;27.27;;
63346;SDS011;49472;49.880;8.650;2022-12-10T01:11:53;39.00;;;28.27;;
63346;SDS011;49472;49.880;8.650;2022-12-10T01:14:21;37.50;;;28.17;;
63346;SDS011;49472;49.880;8.650;2022-12-10T01:16:49;41.67;;;28.67;;
63346;SDS011;49472;49.880;8.650;2022-12-10T01:19:17;42.07;;;28.27;;
63346;SDS011;49472;49.880;8.650;2022-12-10T01:21:43;39.40;;;28.40;;
63346;SDS011;49472;49.880;8.650;2022-12-10T01:24:08;35.53;;;26.83;;
63346;SDS011;49472;49.880;8.650;2022-12-10T01:26:34;39.67;;;28.27;;
63346;SDS011;49472;49.880;8.650;2022-12-10T01:29:00;35.53;;;27.27;;
63346;SDS011;49472;49.880;8.650;2022-12-10T01:31:31;39.13;;;28.20;;
63346;SDS011;49472;49.880;8.650;2022-12-10T01:33:59;38.57;;;27.43;;
63346;SDS011;49472;49.880;8.650;2022-12-10T01:36:26;39.73;;;27.33;;
63346;SDS011;49472;49.880;8.650;2022-12-10T01:38:58;37.90;;;27.90;;
63346;SDS011;49472;49.880;8.650;2022-12-10T01:41:25;36.57;;;26.13;;
63346;SDS011;49472;49.880;8.650;2022-12-10T01:46:31;35.80;;;27.00;;
63346;SDS011;49472;49.880;8.650;2022-12-10T01:48:58;39.40;;;26.57;;
63346;SDS011;49472;49.880;8.650;2022-12-10T01:51:26;40.03;;;27.13;;
63346;SDS011;49472;49.880;8.650;2022-12-10T01:53:53;40.80;;;28.10;;
63346;SDS011;49472;49.880;8.650;2022-12-10T01:56:19;39.17;;;27.47;;
63346;SDS011;49472;49.880;8.650;2022-12-10T01:58:45;38.10;;;26.80;;
63346;SDS011;49472;49.880;8.650;2022-12-10T02:01:14;36.57;;;26.77;;
63346;SDS011;49472;49.880;8.650;2022-12-10T02:09:27;34.60;;;25.47;;
63346;SDS011;49472;49.880;8.650;2022-12-10T02:12:10;37.47;;;27.30;;
63346;SDS011;49472;49.880;8.650;2022-12-10T02:17:52;35.83;;;25.60;;
63346;SDS011;49472;49.880;8.650;2022-12-10T02:20:22;39.93;;;26.63;;
63346;SDS011;49472;49.880;8.650;2022-12-10T02:25:49;39.17;;;26.67;;
63346;SDS011;49472;49.880;8.650;2022-12-10T02:30:52;35.83;;;26.40;;
63346;SDS011;49472;49.880;8.650;2022-12-10T02:33:18;35.70;;;25.70;;
63346;SDS011;49472;49.880;8.650;2022-12-10T02:35:46;35.90;;;26.43;;
63346;SDS011;49472;49.880;8.650;2022-12-10T02:38:17;40.07;;;27.27;;
63346;SDS011;49472;49.880;8.650;2022-12-10T02:40:49;33.53;;;25.87;;
63346;SDS011;49472;49.880;8.650;2022-12-10T02:43:18;35.53;;;25.67;;
63346;SDS011;49472;49.880;8.650;2022-12-10T02:45:46;34.83;;;26.17;;
63346;SDS011;49472;49.880;8.650;2022-12-10T02:48:13;36.03;;;25.33;;
63346;SDS011;49472;49.880;8.650;2022-12-10T02:50:39;34.33;;;24.80;;
63346;SDS011;49472;49.880;8.650;2022-12-10T02:53:04;35.80;;;25.90;;
63346;SDS011;49472;49.880;8.650;2022-12-10T02:55:31;37.13;;;26.60;;
63346;SDS011;49472;49.880;8.650;2022-12-10T02:58:27;38.30;;;27.00;;
63346;SDS011;49472;49.880;8.650;2022-12-10T03:01:03;34.83;;;25.83;;
63346;SDS011;49472;49.880;8.650;2022-12-10T03:03:43;29.47;;;22.90;;
63346;SDS011;49472;49.880;8.650;2022-12-10T03:06:17;35.10;;;25.43;;
63346;SDS011;49472;49.880;8.650;2022-12-10T03:08:48;33.37;;;24.53;;
63346;SDS011;49472;49.880;8.650;2022-12-10T03:11:24;32.53;;;24.40;;
63346;SDS011;49472;49.880;8.650;2022-12-10T03:13:52;33.53;;;24.30;;
63346;SDS011;49472;49.880;8.650;2022-12-10T03:16:19;33.80;;;24.60;;
63346;SDS011;49472;49.880;8.650;2022-12-10T03:18:47;32.30;;;24.20;;
63346;SDS011;49472;49.880;8.650;2022-12-10T03:21:16;35.53;;;25.20;;
63346;SDS011;49472;49.880;8.650;2022-12-10T03:23:43;36.93;;;25.43;;
63346;SDS011;49472;49.880;8.650;2022-12-10T03:26:11;35.70;;;24.70;;
63346;SDS011;49472;49.880;8.650;2022-12-10T03:28:41;30.37;;;24.27;;
63346;SDS011;49472;49.880;8.650;2022-12-10T03:31:11;35.37;;;24.80;;
63346;SDS011;49472;49.880;8.650;2022-12-10T03:33:38;37.33;;;24.80;;
63346;SDS011;49472;49.880;8.650;2022-12-10T03:36:05;32.40;;;24.20;;
63346;SDS011;49472;49.880;8.650;2022-12-10T03:38:31;30.10;;;24.40;;
63346;SDS011;49472;49.880;8.650;2022-12-10T03:40:57;32.27;;;24.97;;
63346;SDS011;49472;49.880;8.650;2022-12-10T03:43:23;32.23;;;24.37;;
63346;SDS011;49472;49.880;8.650;2022-12-10T03:45:48;31.27;;;24.17;;
63346;SDS011;49472;49.880;8.650;2022-12-10T03:48:13;30.00;;;23.90;;
63346;SDS011;49472;49.880;8.650;2022-12-10T03:50:38;30.70;;;23.83;;
63346;SDS011;49472;49.880;8.650;2022-12-10T03:53:04;33.17;;;25.53;;
63346;SDS011;49472;49.880;8.650;2022-12-10T03:55:29;34.93;;;23.40;;
63346;SDS011;49472;49.880;8.650;2022-12-10T03:57:54;31.07;;;24.00;;
63346;SDS011;49472;49.880;8.650;2022-12-10T04:00:20;34.83;;;24.23;;
63346;SDS011;49472;49.880;8.650;2022-12-10T04:02:45;30.27;;;23.70;;
63346;SDS011;49472;49.880;8.650;2022-12-10T04:05:10;31.33;;;24.53;;
63346;SDS011;49472;49.880;8.650;2022-12-10T04:07:36;30.37;;;23.03;;
63346;SDS011;49472;49.880;8.650;2022-12-10T04:10:02;33.40;;;25.00;;
63346;SDS011;49472;49.880;8.650;2022-12-10T04:12:28;29.50;;;22.77;;
63346;SDS011;49472;49.880;8.650;2022-12-10T04:14:53;25.70;;;21.30;;
63346;SDS011;49472;49.880;8.650;2022-12-10T04:17:37;27.00;;;22.33;;
63346;SDS011;49472;49.880;8.650;2022-12-10T04:20:02;29.90;;;23.00;;
63346;SDS011;49472;49.880;8.650;2022-12-10T04:22:28;25.80;;;21.93;;
63346;SDS011;49472;49.880;8.650;2022-12-10T04:25:12;30.57;;;23.10;;
63346;SDS011;49472;49.880;8.650;2022-12-10T04:27:56;28.67;;;22.07;;
63346;SDS011;49472;49.880;8.650;2022-12-10T04:30:22;27.33;;;22.63;;
63346;SDS011;49472;49.880;8.650;2022-12-10T04:32:47;29.47;;;22.73;;
63346;SDS011;49472;49.880;8.650;2022-12-10T04:35:13;33.10;;;25.77;;
63346;SDS011;49472;49.880;8.650;2022-12-10T04:37:38;30.27;;;22.63;;
63346;SDS011;49472;49.880;8.650;2022-12-10T04:40:04;29.07;;;22.90;;
63346;SDS011;49472;49.880;8.650;2022-12-10T04:42:30;26.60;;;22.20;;
63346;SDS011;49472;49.880;8.650;2022-12-10T04:44:55;31.30;;;23.63;;
63346;SDS011;49472;49.880;8.650;2022-12-10T04:47:21;25.53;;;21.70;;
63346;SDS011;49472;49.880;8.650;2022-12-10T04:49:46;25.97;;;22.10;;
63346;SDS011;49472;49.880;8.650;2022-12-10T04:52:12;26.00;;;20.77;;
63346;SDS011;49472;49.880;8.650;2022-12-10T04:54:39;28.70;;;21.60;;
63346;SDS011;49472;49.880;8.650;2022-12-10T04:57:05;26.67;;;22.00;;
63346;SDS011;49472;49.880;8.650;2022-12-10T04:59:31;29.53;;;22.23;;
63346;SDS011;49472;49.880;8.650;2022-12-10T05:01:56;27.80;;;23.03;;
63346;SDS011;49472;49.880;8.650;2022-12-10T05:04:21;29.70;;;22.33;;
63346;SDS011;49472;49.880;8.650;2022-12-10T05:06:47;28.70;;;22.60;;
63346;SDS011;49472;49.880;8.650;2022-12-10T05:09:14;26.87;;;22.20;;
63346;SDS011;49472;49.880;8.650;2022-12-10T05:11:40;31.30;;;21.93;;
63346;SDS011;49472;49.880;8.650;2022-12-10T05:14:10;33.77;;;21.80;;
63346;SDS011;49472;49.880;8.650;2022-12-10T05:16:37;29.07;;;22.17;;
63346;SDS011;49472;49.880;8.650;2022-12-10T05:19:02;28.13;;;22.03;;
63346;SDS011;49472;49.880;8.650;2022-12-10T05:21:28;29.07;;;22.13;;
63346;SDS011;49472;49.880;8.650;2022-12-10T05:24:14;30.57;;;21.20;;
63346;SDS011;49472;49.880;8.650;2022-12-10T05:26:40;23.63;;;20.60;;
63346;SDS011;49472;49.880;8.650;2022-12-10T05:29:05;27.50;;;22.57;;
63346;SDS011;49472;49.880;8.650;2022-12-10T05:31:30;26.13;;;21.30;;
63346;SDS011;49472;49.880;8.650;2022-12-10T05:33:56;27.97;;;21.93;;
63346;SDS011;49472;49.880;8.650;2022-12-10T05:36:24;27.73;;;22.40;;
63346;SDS011;49472;49.880;8.650;2022-12-10T05:38:51;28.90;;;23.57;;
63346;SDS011;49472;49.880;8.650;2022-12-10T05:41:19;30.57;;;21.87;;
63346;SDS011;49472;49.880;8.650;2022-12-10T05:43:46;27.40;;;22.33;;
63346;SDS011;49472;49.880;8.650;2022-12-10T05:46:18;29.20;;;23.00;;
63346;SDS011;49472;49.880;8.650;2022-12-10T05:48:45;27.00;;;23.00;;
63346;SDS011;49472;49.880;8.650;2022-12-10T05:51:13;26.27;;;21.00;;
63346;SDS011;49472;49.880;8.650;2022-12-10T05:53:40;30.50;;;22.53;;
63346;SDS011;49472;49.880;8.650;2022-12-10T05:56:10;33.90;;;24.37;;
63346;SDS011;49472;49.880;8.650;2022-12-10T05:58:37;34.13;;;24.93;;
63346;SDS011;49472;49.880;8.650;2022-12-10T06:01:08;35.20;;;25.37;;
63346;SDS011;49472;49.880;8.650;2022-12-10T06:03:35;30.40;;;23.83;;
63346;SDS011;49472;49.880;8.650;2022-12-10T06:06:00;42.03;;;26.03;;
63346;SDS011;49472;49.880;8.650;2022-12-10T06:08:26;43.63;;;26.43;;
63346;SDS011;49472;49.880;8.650;2022-12-10T06:10:51;35.60;;;24.90;;
63346;SDS011;49472;49.880;8.650;2022-12-10T06:13:16;42.03;;;24.23;;
63346;SDS011;49472;49.880;8.650;2022-12-10T06:15:42;38.83;;;25.90;;
63346;SDS011;49472;49.880;8.650;2022-12-10T06:18:07;35.57;;;24.43;;
63346;SDS011;49472;49.880;8.650;2022-12-10T06:20:33;30.67;;;23.43;;
63346;SDS011;49472;49.880;8.650;2022-12-10T06:23:02;37.03;;;23.90;;
63346;SDS011;49472;49.880;8.650;2022-12-10T06:25:27;28.53;;;22.43;;
63346;SDS011;49472;49.880;8.650;2022-12-10T06:27:52;31.93;;;24.20;;
63346;SDS011;49472;49.880;8.650;2022-12-10T06:30:17;35.00;;;24.80;;
63346;SDS011;49472;49.880;8.650;2022-12-10T06:32:43;31.00;;;24.07;;
63346;SDS011;49472;49.880;8.650;2022-12-10T06:35:09;33.40;;;24.77;;
63346;SDS011;49472;49.880;8.650;2022-12-10T06:37:35;30.30;;;24.00;;
63346;SDS011;49472;49.880;8.650;2022-12-10T06:40:01;35.63;;;25.20;;
63346;SDS011;49472;49.880;8.650;2022-12-10T06:42:27;28.67;;;23.03;;
63346;SDS011;49472;49.880;8.650;2022-12-10T06:44:53;31.00;;;23.60;;
63346;SDS011;49472;49.880;8.650;2022-12-10T06:47:18;30.00;;;23.63;;
63346;SDS011;49472;49.880;8.650;2022-12-10T06:49:43;30.47;;;23.10;;
63346;SDS011;49472;49.880;8.650;2022-12-10T06:52:09;28.50;;;22.70;;
63346;SDS011;49472;49.880;8.650;2022-12-10T06:54:34;40.27;;;23.03;;
63346;SDS011;49472;49.880;8.650;2022-12-10T06:56:59;28.77;;;22.67;;
63346;SDS011;49472;49.880;8.650;2022-12-10T06:59:24;32.60;;;22.97;;
63346;SDS011;49472;49.880;8.650;2022-12-10T07:01:50;26.57;;;22.23;;
63346;SDS011;49472;49.880;8.650;2022-12-10T07:04:15;30.60;;;22.40;;
63346;SDS011;49472;49.880;8.650;2022-12-10T07:06:41;33.40;;;22.70;;
63346;SDS011;49472;49.880;8.650;2022-12-10T07:09:06;30.93;;;23.60;;
63346;SDS011;49472;49.880;8.650;2022-12-10T07:11:32;34.90;;;23.77;;
63346;SDS011;49472;49.880;8.650;2022-12-10T07:13:58;26.50;;;22.63;;
63346;SDS011;49472;49.880;8.650;2022-12-10T07:16:25;30.80;;;24.60;;
63346;SDS011;49472;49.880;8.650;2022-12-10T07:18:53;29.07;;;23.40;;
63346;SDS011;49472;49.880;8.650;2022-12-10T07:21:22;30.00;;;22.40;;
63346;SDS011;49472;49.880;8.650;2022-12-10T07:23:47;25.70;;;22.07;;
63346;SDS011;49472;49.880;8.650;2022-12-10T07:26:13;29.97;;;22.60;;
63346;SDS011;49472;49.880;8.650;2022-12-10T07:28:39;30.10;;;23.57;;
63346;SDS011;49472;49.880;8.650;2022-12-10T07:31:05;29.77;;;23.93;;
63346;SDS011;49472;49.880;8.650;2022-12-10T07:33:32;25.97;;;22.10;;
63346;SDS011;49472;49.880;8.650;2022-12-10T07:35:57;30.50;;;22.70;;
63346;SDS011;49472;49.880;8.650;2022-12-10T07:38:23;27.90;;;22.13;;
63346;SDS011;49472;49.880;8.650;2022-12-10T07:40:49;29.73;;;21.60;;
63346;SDS011;49472;49.880;8.650;2022-12-10T07:43:14;27.57;;;21.17;;
63346;SDS011;49472;49.880;8.650;2022-12-10T07:45:40;27.70;;;21.70;;
63346;SDS011;49472;49.880;8.650;2022-12-10T07:48:05;26.17;;;21.63;;
63346;SDS011;49472;49.880;8.650;2022-12-10T07:50:30;29.73;;;22.33;;
63346;SDS011;49472;49.880;8.650;2022-12-10T07:52:56;31.97;;;21.50;;
63346;SDS011;49472;49.880;8.650;2022-12-10T07:55:21;26.60;;;21.37;;
63346;SDS011;49472;49.880;8.650;2022-12-10T07:57:46;30.03;;;22.60;;
63346;SDS011;49472;49.880;8.650;2022-12-10T08:00:12;27.43;;;21.90;;
63346;SDS011;49472;49.880;8.650;2022-12-10T08:02:37;28.17;;;22.73;;
63346;SDS011;49472;49.880;8.650;2022-12-10T08:05:03;25.73;;;21.00;;
63346;SDS011;49472;49.880;8.650;2022-12-10T08:07:28;25.17;;;21.17;;
63346;SDS011;49472;49.880;8.650;2022-12-10T08:09:53;28.03;;;21.97;;
63346;SDS011;49472;49.880;8.650;2022-12-10T08:12:19;25.97;;;21.97;;
63346;SDS011;49472;49.880;8.650;2022-12-10T08:14:44;26.83;;;21.90;;
63346;SDS011;49472;49.880;8.650;2022-12-10T08:17:10;30.30;;;21.57;;
63346;SDS011;49472;49.880;8.650;2022-12-10T08:19:35;26.57;;;21.10;;
63346;SDS011;49472;49.880;8.650;2022-12-10T08:22:00;24.90;;;22.13;;
63346;SDS011;49472;49.880;8.650;2022-12-10T08:24:25;27.23;;;23.17;;
63346;SDS011;49472;49.880;8.650;2022-12-10T08:26:51;29.93;;;22.87;;
63346;SDS011;49472;49.880;8.650;2022-12-10T08:29:16;29.83;;;22.80;;
63346;SDS011;49472;49.880;8.650;2022-12-10T08:31:41;30.07;;;23.90;;
63346;SDS011;49472;49.880;8.650;2022-12-10T08:34:14;30.53;;;23.20;;
63346;SDS011;49472;49.880;8.650;2022-12-10T08:36:41;29.13;;;22.53;;
63346;SDS011;49472;49.880;8.650;2022-12-10T08:39:06;31.23;;;22.77;;
63346;SDS011;49472;49.880;8.650;2022-12-10T08:41:32;24.53;;;21.43;;
63346;SDS011;49472;49.880;8.650;2022-12-10T08:43:57;26.90;;;22.90;;
63346;SDS011;49472;49.880;8.650;2022-12-10T08:46:22;29.10;;;22.47;;
63346;SDS011;49472;49.880;8.650;2022-12-10T08:48:49;30.17;;;23.80;;
63346;SDS011;49472;49.880;8.650;2022-12-10T08:51:16;29.57;;;22.67;;
63346;SDS011;49472;49.880;8.650;2022-12-10T08:53:42;31.07;;;21.80;;
63346;SDS011;49472;49.880;8.650;2022-12-10T08:56:09;26.30;;;22.27;;
63346;SDS011;49472;49.880;8.650;2022-12-10T08:58:35;31.17;;;21.97;;
63346;SDS011;49472;49.880;8.650;2022-12-10T09:01:05;31.30;;;21.20;;
63346;SDS011;49472;49.880;8.650;2022-12-10T09:03:34;28.07;;;21.77;;
63346;SDS011;49472;49.880;8.650;2022-12-10T09:06:08;24.93;;;20.67;;
63346;SDS011;49472;49.880;8.650;2022-12-10T09:08:35;23.83;;;20.83;;
63346;SDS011;49472;49.880;8.650;2022-12-10T09:11:11;26.37;;;22.00;;
63346;SDS011;49472;49.880;8.650;2022-12-10T09:13:42;28.30;;;22.40;;
63346;SDS011;49472;49.880;8.650;2022-12-10T09:16:08;26.30;;;21.00;;
63346;SDS011;49472;49.880;8.650;2022-12-10T09:18:33;33.23;;;23.20;;
63346;SDS011;49472;49.880;8.650;2022-12-10T09:20:59;24.63;;;20.47;;
63346;SDS011;49472;49.880;8.650;2022-12-10T09:23:24;23.63;;;21.27;;
63346;SDS011;49472;49.880;8.650;2022-12-10T09:25:50;24.57;;;21.07;;
63346;SDS011;49472;49.880;8.650;2022-12-10T09:28:15;24.43;;;21.23;;
63346;SDS011;49472;49.880;8.650;2022-12-10T09:30:41;28.10;;;22.40;;
63346;SDS011;49472;49.880;8.650;2022-12-10T09:33:06;30.33;;;23.10;;
63346;SDS011;49472;49.880;8.650;2022-12-10T09:35:31;25.83;;;22.17;;
63346;SDS011;49472;49.880;8.650;2022-12-10T09:37:57;30.10;;;22.73;;
63346;SDS011;49472;49.880;8.650;2022-12-10T09:40:26;28.23;;;23.00;;
63346;SDS011;49472;49.880;8.650;2022-12-10T09:43:22;32.87;;;21.50;;
63346;SDS011;49472;49.880;8.650;2022-12-10T09:51:27;29.27;;;22.17;;
63346;SDS011;49472;49.880;8.650;2022-12-10T09:53:55;33.50;;;22.60;;
63346;SDS011;49472;49.880;8.650;2022-12-10T09:56:34;28.60;;;21.00;;
63346;SDS011;49472;49.880;8.650;2022-12-10T09:59:10;27.20;;;20.20;;
63346;SDS011;49472;49.880;8.650;2022-12-10T10:01:42;23.63;;;19.33;;
63346;SDS011;49472;49.880;8.650;2022-12-10T10:04:09;24.60;;;20.37;;
63346;SDS011;49472;49.880;8.650;2022-12-10T10:06:35;23.53;;;21.00;;
63346;SDS011;49472;49.880;8.650;2022-12-10T10:09:01;22.70;;;20.30;;
63346;SDS011;49472;49.880;8.650;2022-12-10T10:11:29;23.23;;;20.30;;
63346;SDS011;49472;49.880;8.650;2022-12-10T10:14:10;24.20;;;20.60;;
63346;SDS011;49472;49.880;8.650;2022-12-10T10:16:48;25.90;;;22.07;;
63346;SDS011;49472;49.880;8.650;2022-12-10T10:19:27;25.17;;;22.43;;
63346;SDS011;49472;49.880;8.650;2022-12-10T10:21:55;23.90;;;20.67;;
63346;SDS011;49472;49.880;8.650;2022-12-10T10:24:22;27.53;;;21.67;;
63346;SDS011;49472;49.880;8.650;2022-12-10T10:26:56;25.40;;;22.23;;
63346;SDS011;49472;49.880;8.650;2022-12-10T10:29:22;28.20;;;23.40;;
63346;SDS011;49472;49.880;8.650;2022-12-10T10:32:09;29.00;;;23.87;;
63346;SDS011;49472;49.880;8.650;2022-12-10T10:34:40;26.30;;;22.77;;
63346;SDS011;49472;49.880;8.650;2022-12-10T10:37:11;25.43;;;22.73;;
63346;SDS011;49472;49.880;8.650;2022-12-10T10:39:40;29.20;;;22.60;;
63346;SDS011;49472;49.880;8.650;2022-12-10T10:42:14;25.47;;;22.60;;
63346;SDS011;49472;49.880;8.650;2022-12-10T10:44:49;25.60;;;21.70;;
63346;SDS011;49472;49.880;8.650;2022-12-10T10:47:34;28.43;;;23.40;;
63346;SDS011;49472;49.880;8.650;2022-12-10T10:50:03;26.30;;;22.93;;
63346;SDS011;49472;49.880;8.650;2022-12-10T10:52:34;34.80;;;23.67;;
63346;SDS011;49472;49.880;8.650;2022-12-10T10:55:02;27.70;;;22.47;;
63346;SDS011;49472;49.880;8.650;2022-12-10T10:57:34;28.33;;;23.43;;
63346;SDS011;49472;49.880;8.650;2022-12-10T11:00:20;25.80;;;21.50;;
63346;SDS011;49472;49.880;8.650;2022-12-10T11:02:49;27.37;;;21.77;;
63346;SDS011;49472;49.880;8.650;2022-12-10T11:05:16;25.67;;;22.37;;
63346;SDS011;49472;49.880;8.650;2022-12-10T11:07:47;28.83;;;23.70;;
63346;SDS011;49472;49.880;8.650;2022-12-10T11:10:16;29.93;;;24.30;;
63346;SDS011;49472;49.880;8.650;2022-12-10T11:12:46;28.20;;;23.50;;
63346;SDS011;49472;49.880;8.650;2022-12-10T11:17:53;26.40;;;22.70;;
63346;SDS011;49472;49.880;8.650;2022-12-10T11:22:53;32.87;;;25.00;;
63346;SDS011;49472;49.880;8.650;2022-12-10T11:25:25;29.47;;;24.33;;
63346;SDS011;49472;49.880;8.650;2022-12-10T11:28:06;29.70;;;22.77;;
63346;SDS011;49472;49.880;8.650;2022-12-10T11:30:45;28.37;;;23.77;;
63346;SDS011;49472;49.880;8.650;2022-12-10T11:33:32;30.07;;;24.73;;
63346;SDS011;49472;49.880;8.650;2022-12-10T11:36:36;28.70;;;24.57;;
63346;SDS011;49472;49.880;8.650;2022-12-10T11:41:58;30.33;;;23.87;;
63346;SDS011;49472;49.880;8.650;2022-12-10T11:47:35;30.03;;;25.10;;
63346;SDS011;49472;49.880;8.650;2022-12-10T11:53:07;33.20;;;25.40;;
63346;SDS011;49472;49.880;8.650;2022-12-10T12:15:34;28.10;;;22.37;;
63346;SDS011;49472;49.880;8.650;2022-12-10T12:18:15;27.70;;;22.50;;
63346;SDS011;49472;49.880;8.650;2022-12-10T12:20:43;28.33;;;22.90;;
63346;SDS011;49472;49.880;8.650;2022-12-10T12:23:22;27.13;;;22.60;;
63346;SDS011;49472;49.880;8.650;2022-12-10T12:25:55;29.20;;;23.00;;
63346;SDS011;49472;49.880;8.650;2022-12-10T12:37:22;100.47;;;54.63;;
63346;SDS011;49472;49.880;8.650;2022-12-10T12:40:03;36.90;;;27.20;;
63346;SDS011;49472;49.880;8.650;2022-12-10T12:45:41;44.07;;;28.10;;
63346;SDS011;49472;49.880;8.650;2022-12-10T12:53:24;29.60;;;23.13;;
63346;SDS011;49472;49.880;8.650;2022-12-10T12:58:37;30.17;;;23.23;;
63346;SDS011;49472;49.880;8.650;2022-12-10T13:03:53;28.40;;;22.83;;
63346;SDS011;49472;49.880;8.650;2022-12-10T13:11:41;24.47;;;21.83;;
63346;SDS011;49472;49.880;8.650;2022-12-10T13:25:03;24.43;;;21.13;;
63346;SDS011;49472;49.880;8.650;2022-12-10T13:27:56;25.43;;;21.90;;
63346;SDS011;49472;49.880;8.650;2022-12-10T13:30:40;24.40;;;21.73;;
63346;SDS011;49472;49.880;8.650;2022-12-10T13:33:13;27.70;;;22.53;;
63346;SDS011;49472;49.880;8.650;2022-12-10T13:35:43;25.03;;;21.57;;
63346;SDS011;49472;49.880;8.650;2022-12-10T13:38:28;26.90;;;21.20;;
63346;SDS011;49472;49.880;8.650;2022-12-10T13:41:12;26.03;;;21.13;;
63346;SDS011;49472;49.880;8.650;2022-12-10T13:43:58;27.10;;;21.23;;
63346;SDS011;49472;49.880;8.650;2022-12-10T13:46:54;24.27;;;21.00;;
63346;SDS011;49472;49.880;8.650;2022-12-10T13:49:20;23.57;;;21.07;;
63346;SDS011;49472;49.880;8.650;2022-12-10T13:52:02;27.27;;;22.00;;
63346;SDS011;49472;49.880;8.650;2022-12-10T13:54:34;25.80;;;22.03;;
63346;SDS011;49472;49.880;8.650;2022-12-10T14:00:07;26.23;;;21.03;;
63346;SDS011;49472;49.880;8.650;2022-12-10T14:11:27;24.57;;;21.40;;
63346;SDS011;49472;49.880;8.650;2022-12-10T14:13:56;27.67;;;20.67;;
63346;SDS011;49472;49.880;8.650;2022-12-10T14:16:23;25.43;;;20.87;;
63346;SDS011;49472;49.880;8.650;2022-12-10T14:18:52;24.13;;;20.37;;
63346;SDS011;49472;49.880;8.650;2022-12-10T14:21:21;31.50;;;21.90;;
63346;SDS011;49472;49.880;8.650;2022-12-10T14:23:49;27.30;;;22.07;;
63346;SDS011;49472;49.880;8.650;2022-12-10T14:26:17;25.53;;;21.40;;
63346;SDS011;49472;49.880;8.650;2022-12-10T15:12:44;22.80;;;20.37;;
63346;SDS011;49472;49.880;8.650;2022-12-10T15:15:25;25.90;;;21.20;;
63346;SDS011;49472;49.880;8.650;2022-12-10T15:18:03;22.80;;;20.00;;
63346;SDS011;49472;49.880;8.650;2022-12-10T15:23:17;24.10;;;20.17;;
63346;SDS011;49472;49.880;8.650;2022-12-10T15:25:45;24.10;;;20.80;;
63346;SDS011;49472;49.880;8.650;2022-12-10T15:28:26;27.10;;;21.77;;
63346;SDS011;49472;49.880;8.650;2022-12-10T15:33:45;22.97;;;19.40;;
63346;SDS011;49472;49.880;8.650;2022-12-10T15:36:15;22.87;;;20.47;;
63346;SDS011;49472;49.880;8.650;2022-12-10T15:38:44;23.30;;;20.47;;
63346;SDS011;49472;49.880;8.650;2022-12-10T15:41:21;25.27;;;21.90;;
63346;SDS011;49472;49.880;8.650;2022-12-10T15:44:02;25.43;;;22.23;;
63346;SDS011;49472;49.880;8.650;2022-12-10T15:46:29;27.63;;;22.77;;
63346;SDS011;49472;49.880;8.650;2022-12-10T15:48:55;31.60;;;24.53;;
63346;SDS011;49472;49.880;8.650;2022-12-10T15:51:20;24.93;;;21.87;;
63346;SDS011;49472;49.880;8.650;2022-12-10T15:53:45;26.20;;;19.07;;
63346;SDS011;49472;49.880;8.650;2022-12-10T15:56:11;26.27;;;21.07;;
63346;SDS011;49472;49.880;8.650;2022-12-10T15:58:36;24.07;;;20.53;;
63346;SDS011;49472;49.880;8.650;2022-12-10T16:01:01;23.67;;;21.17;;
63346;SDS011;49472;49.880;8.650;2022-12-10T16:03:27;25.43;;;20.17;;
63346;SDS011;49472;49.880;8.650;2022-12-10T16:05:53;24.80;;;21.47;;
63346;SDS011;49472;49.880;8.650;2022-12-10T16:08:22;26.93;;;21.47;;
63346;SDS011;49472;49.880;8.650;2022-12-10T16:10:54;23.17;;;20.77;;
63346;SDS011;49472;49.880;8.650;2022-12-10T16:13:31;29.73;;;24.33;;
63346;SDS011;49472;49.880;8.650;2022-12-10T16:16:06;31.13;;;25.00;;
63346;SDS011;49472;49.880;8.650;2022-12-10T16:18:33;35.27;;;28.00;;
63346;SDS011;49472;49.880;8.650;2022-12-10T16:21:01;42.37;;;28.93;;
63346;SDS011;49472;49.880;8.650;2022-12-10T16:23:26;30.00;;;22.50;;
63346;SDS011;49472;49.880;8.650;2022-12-10T16:25:51;26.10;;;23.27;;
63346;SDS011;49472;49.880;8.650;2022-12-10T16:28:18;27.93;;;22.77;;
63346;SDS011;49472;49.880;8.650;2022-12-10T16:30:46;26.93;;;23.50;;
63346;SDS011;49472;49.880;8.650;2022-12-10T16:33:14;23.40;;;21.00;;
63346;SDS011;49472;49.880;8.650;2022-12-10T16:35:40;22.53;;;20.10;;
63346;SDS011;49472;49.880;8.650;2022-12-10T16:38:07;27.30;;;21.57;;
63346;SDS011;49472;49.880;8.650;2022-12-10T16:40:34;24.97;;;22.17;;
63346;SDS011;49472;49.880;8.650;2022-12-10T16:42:59;23.20;;;20.80;;
63346;SDS011;49472;49.880;8.650;2022-12-10T16:45:29;22.57;;;20.13;;
63346;SDS011;49472;49.880;8.650;2022-12-10T16:47:54;22.87;;;20.37;;
63346;SDS011;49472;49.880;8.650;2022-12-10T16:50:20;25.50;;;21.93;;
63346;SDS011;49472;49.880;8.650;2022-12-10T16:52:47;26.77;;;23.20;;
63346;SDS011;49472;49.880;8.650;2022-12-10T16:55:14;23.60;;;21.10;;
63346;SDS011;49472;49.880;8.650;2022-12-10T16:57:41;24.60;;;22.00;;
63346;SDS011;49472;49.880;8.650;2022-12-10T17:00:09;30.97;;;24.07;;
63346;SDS011;49472;49.880;8.650;2022-12-10T17:02:36;28.33;;;22.73;;
63346;SDS011;49472;49.880;8.650;2022-12-10T17:05:01;27.43;;;24.30;;
63346;SDS011;49472;49.880;8.650;2022-12-10T17:07:26;32.73;;;26.37;;